sensor_id;sensor_type;location;lat;lon;timestamp;temperature;humidity
71649;SHT31;70112;45.624;11.760;2023-12-20T00:01:19;4.88;69.10
71649;SHT31;70112;45.624;11.760;2023-12-20T00:03:44;4.88;69.09
71649;SHT31;70112;45.624;11.760;2023-12-20T00:08:46;4.89;69.10
71649;SHT31;70112;45.624;11.760;2023-12-20T00:11:12;4.88;69.04
71649;SHT31;70112;45.624;11.760;2023-12-20T00:13:41;4.83;68.97
71649;SHT31;70112;45.624;11.760;2023-12-20T00:16:07;4.80;69.00
71649;SHT31;70112;45.624;11.760;2023-12-20T00:18:32;4.78;69.02
71649;SHT31;70112;45.624;11.760;2023-12-20T00:20:58;4.76;68.95
71649;SHT31;70112;45.624;11.760;2023-12-20T00:23:24;4.72;68.91
71649;SHT31;70112;45.624;11.760;2023-12-20T00:25:52;4.71;69.00
71649;SHT31;70112;45.624;11.760;2023-12-20T00:28:20;4.72;69.07
71649;SHT31;70112;45.624;11.760;2023-12-20T00:30:45;4.75;69.08
71649;SHT31;70112;45.624;11.760;2023-12-20T00:33:11;4.76;69.03
71649;SHT31;70112;45.624;11.760;2023-12-20T00:35:36;4.73;69.10
71649;SHT31;70112;45.624;11.760;2023-12-20T00:38:02;4.72;69.01
71649;SHT31;70112;45.624;11.760;2023-12-20T00:40:30;4.71;69.00
71649;SHT31;70112;45.624;11.760;2023-12-20T00:42:56;4.63;69.12
71649;SHT31;70112;45.624;11.760;2023-12-20T00:45:21;4.65;69.11
71649;SHT31;70112;45.624;11.760;2023-12-20T00:47:50;4.66;69.10
71649;SHT31;70112;45.624;11.760;2023-12-20T00:50:27;4.67;69.10
71649;SHT31;70112;45.624;11.760;2023-12-20T00:52:53;4.65;69.09
71649;SHT31;70112;45.624;11.760;2023-12-20T00:55:19;4.63;68.98
71649;SHT31;70112;45.624;11.760;2023-12-20T00:57:45;4.61;68.84
71649;SHT31;70112;45.624;11.760;2023-12-20T01:00:11;4.55;68.82
71649;SHT31;70112;45.624;11.760;2023-12-20T01:02:38;4.53;68.90
71649;SHT31;70112;45.624;11.760;2023-12-20T01:05:05;4.51;68.95
71649;SHT31;70112;45.624;11.760;2023-12-20T01:07:32;4.50;69.05
71649;SHT31;70112;45.624;11.760;2023-12-20T01:09:59;4.50;69.11
71649;SHT31;70112;45.624;11.760;2023-12-20T01:12:25;4.52;69.15
71649;SHT31;70112;45.624;11.760;2023-12-20T01:14:50;4.54;69.20
71649;SHT31;70112;45.624;11.760;2023-12-20T01:17:16;4.57;69.16
71649;SHT31;70112;45.624;11.760;2023-12-20T01:20:02;4.60;69.08
71649;SHT31;70112;45.624;11.760;2023-12-20T01:22:28;4.60;68.91
71649;SHT31;70112;45.624;11.760;2023-12-20T01:24:53;4.57;68.92
71649;SHT31;70112;45.624;11.760;2023-12-20T01:27:19;4.55;68.95
71649;SHT31;70112;45.624;11.760;2023-12-20T01:29:44;4.51;68.93
71649;SHT31;70112;45.624;11.760;2023-12-20T01:32:10;4.50;68.90
71649;SHT31;70112;45.624;11.760;2023-12-20T01:34:35;4.46;68.90
71649;SHT31;70112;45.624;11.760;2023-12-20T01:37:01;4.42;68.81
71649;SHT31;70112;45.624;11.760;2023-12-20T01:39:27;4.39;68.85
71649;SHT31;70112;45.624;11.760;2023-12-20T01:41:56;4.37;68.80
71649;SHT31;70112;45.624;11.760;2023-12-20T01:44:42;4.31;68.84
71649;SHT31;70112;45.624;11.760;2023-12-20T01:47:10;4.27;68.89
71649;SHT31;70112;45.624;11.760;2023-12-20T01:49:36;4.27;68.89
71649;SHT31;70112;45.624;11.760;2023-12-20T01:52:02;4.26;68.77
71649;SHT31;70112;45.624;11.760;2023-12-20T01:54:28;4.24;68.73
71649;SHT31;70112;45.624;11.760;2023-12-20T01:56:54;4.20;68.70
71649;SHT31;70112;45.624;11.760;2023-12-20T01:59:23;4.17;68.71
71649;SHT31;70112;45.624;11.760;2023-12-20T02:04:45;4.12;68.98
71649;SHT31;70112;45.624;11.760;2023-12-20T02:07:12;4.13;69.03
71649;SHT31;70112;45.624;11.760;2023-12-20T02:10:01;4.13;69.09
71649;SHT31;70112;45.624;11.760;2023-12-20T02:12:27;4.15;69.16
71649;SHT31;70112;45.624;11.760;2023-12-20T02:17:32;4.16;69.21
71649;SHT31;70112;45.624;11.760;2023-12-20T02:20:05;4.17;69.20
71649;SHT31;70112;45.624;11.760;2023-12-20T02:22:34;4.18;69.17
71649;SHT31;70112;45.624;11.760;2023-12-20T02:24:59;4.18;69.25
71649;SHT31;70112;45.624;11.760;2023-12-20T02:27:28;4.17;69.21
71649;SHT31;70112;45.624;11.760;2023-12-20T02:29:55;4.15;69.18
71649;SHT31;70112;45.624;11.760;2023-12-20T02:32:21;4.14;69.10
71649;SHT31;70112;45.624;11.760;2023-12-20T02:34:48;4.10;69.09
71649;SHT31;70112;45.624;11.760;2023-12-20T02:37:17;4.05;69.04
71649;SHT31;70112;45.624;11.760;2023-12-20T02:39:53;3.99;69.08
71649;SHT31;70112;45.624;11.760;2023-12-20T02:42:19;3.95;69.19
71649;SHT31;70112;45.624;11.760;2023-12-20T02:45:05;3.92;69.26
71649;SHT31;70112;45.624;11.760;2023-12-20T02:47:32;3.90;69.30
71649;SHT31;70112;45.624;11.760;2023-12-20T02:49:57;3.90;69.40
71649;SHT31;70112;45.624;11.760;2023-12-20T02:52:39;3.92;69.46
71649;SHT31;70112;45.624;11.760;2023-12-20T02:57:45;3.94;69.39
71649;SHT31;70112;45.624;11.760;2023-12-20T03:00:16;3.94;69.41
71649;SHT31;70112;45.624;11.760;2023-12-20T03:02:45;3.93;69.48
71649;SHT31;70112;45.624;11.760;2023-12-20T03:05:11;3.93;69.57
71649;SHT31;70112;45.624;11.760;2023-12-20T03:07:36;3.93;69.60
71649;SHT31;70112;45.624;11.760;2023-12-20T03:10:03;3.94;69.60
71649;SHT31;70112;45.624;11.760;2023-12-20T03:12:31;3.96;69.61
71649;SHT31;70112;45.624;11.760;2023-12-20T03:14:56;3.97;69.46
71649;SHT31;70112;45.624;11.760;2023-12-20T03:17:22;3.96;69.40
71649;SHT31;70112;45.624;11.760;2023-12-20T03:19:48;3.94;69.48
71649;SHT31;70112;45.624;11.760;2023-12-20T03:22:14;3.94;69.52
71649;SHT31;70112;45.624;11.760;2023-12-20T03:24:40;3.91;69.51
71649;SHT31;70112;45.624;11.760;2023-12-20T03:27:11;3.88;69.54
71649;SHT31;70112;45.624;11.760;2023-12-20T03:29:39;3.89;69.51
71649;SHT31;70112;45.624;11.760;2023-12-20T03:32:25;3.89;69.55
71649;SHT31;70112;45.624;11.760;2023-12-20T03:34:59;3.88;69.59
71649;SHT31;70112;45.624;11.760;2023-12-20T03:37:25;3.89;69.58
71649;SHT31;70112;45.624;11.760;2023-12-20T03:39:51;3.89;69.60
71649;SHT31;70112;45.624;11.760;2023-12-20T03:42:17;3.90;69.60
71649;SHT31;70112;45.624;11.760;2023-12-20T03:44:42;3.93;69.60
71649;SHT31;70112;45.624;11.760;2023-12-20T03:47:08;3.93;69.59
71649;SHT31;70112;45.624;11.760;2023-12-20T03:49:34;3.95;69.59
71649;SHT31;70112;45.624;11.760;2023-12-20T03:52:02;3.95;69.60
71649;SHT31;70112;45.624;11.760;2023-12-20T03:54:28;3.97;69.59
71649;SHT31;70112;45.624;11.760;2023-12-20T03:56:54;3.99;69.59
71649;SHT31;70112;45.624;11.760;2023-12-20T04:02:00;4.06;69.60
71649;SHT31;70112;45.624;11.760;2023-12-20T04:04:31;4.07;69.60
71649;SHT31;70112;45.624;11.760;2023-12-20T04:07:00;4.07;69.57
71649;SHT31;70112;45.624;11.760;2023-12-20T04:09:25;4.09;69.60
71649;SHT31;70112;45.624;11.760;2023-12-20T04:11:51;4.09;69.67
71649;SHT31;70112;45.624;11.760;2023-12-20T04:14:16;4.11;69.61
71649;SHT31;70112;45.624;11.760;2023-12-20T04:16:42;4.15;69.68
71649;SHT31;70112;45.624;11.760;2023-12-20T04:19:08;4.20;69.69
71649;SHT31;70112;45.624;11.760;2023-12-20T04:21:34;4.23;69.70
71649;SHT31;70112;45.624;11.760;2023-12-20T04:24:03;4.26;69.77
71649;SHT31;70112;45.624;11.760;2023-12-20T04:26:29;4.28;69.80
71649;SHT31;70112;45.624;11.760;2023-12-20T04:28:54;4.31;69.81
71649;SHT31;70112;45.624;11.760;2023-12-20T04:31:20;4.32;69.80
71649;SHT31;70112;45.624;11.760;2023-12-20T04:33:46;4.33;69.80
71649;SHT31;70112;45.624;11.760;2023-12-20T04:36:11;4.34;69.77
71649;SHT31;70112;45.624;11.760;2023-12-20T04:38:39;4.35;69.84
71649;SHT31;70112;45.624;11.760;2023-12-20T04:41:04;4.34;69.94
71649;SHT31;70112;45.624;11.760;2023-12-20T04:43:31;4.36;70.04
71649;SHT31;70112;45.624;11.760;2023-12-20T04:45:56;4.39;69.97
71649;SHT31;70112;45.624;11.760;2023-12-20T04:48:22;4.40;69.98
71649;SHT31;70112;45.624;11.760;2023-12-20T04:50:48;4.41;69.90
71649;SHT31;70112;45.624;11.760;2023-12-20T04:53:13;4.40;69.79
71649;SHT31;70112;45.624;11.760;2023-12-20T04:55:39;4.40;69.70
71649;SHT31;70112;45.624;11.760;2023-12-20T04:58:05;4.37;69.71
71649;SHT31;70112;45.624;11.760;2023-12-20T05:00:30;4.34;69.79
71649;SHT31;70112;45.624;11.760;2023-12-20T05:02:56;4.34;69.90
71649;SHT31;70112;45.624;11.760;2023-12-20T05:05:25;4.33;69.91
71649;SHT31;70112;45.624;11.760;2023-12-20T05:07:50;4.34;69.90
71649;SHT31;70112;45.624;11.760;2023-12-20T05:10:16;4.34;69.92
71649;SHT31;70112;45.624;11.760;2023-12-20T05:12:41;4.34;69.97
71649;SHT31;70112;45.624;11.760;2023-12-20T05:15:07;4.37;69.97
71649;SHT31;70112;45.624;11.760;2023-12-20T05:17:34;4.39;69.90
71649;SHT31;70112;45.624;11.760;2023-12-20T05:20:00;4.39;69.85
71649;SHT31;70112;45.624;11.760;2023-12-20T05:22:25;4.39;69.83
71649;SHT31;70112;45.624;11.760;2023-12-20T05:24:52;4.37;69.71
71649;SHT31;70112;45.624;11.760;2023-12-20T05:27:18;4.33;69.65
71649;SHT31;70112;45.624;11.760;2023-12-20T05:29:44;4.30;69.70
71649;SHT31;70112;45.624;11.760;2023-12-20T05:32:12;4.28;69.63
71649;SHT31;70112;45.624;11.760;2023-12-20T05:34:38;4.25;69.63
71649;SHT31;70112;45.624;11.760;2023-12-20T05:37:05;4.22;69.76
71649;SHT31;70112;45.624;11.760;2023-12-20T05:39:31;4.23;69.89
71649;SHT31;70112;45.624;11.760;2023-12-20T05:41:57;4.25;69.91
71649;SHT31;70112;45.624;11.760;2023-12-20T05:44:22;4.30;69.97
71649;SHT31;70112;45.624;11.760;2023-12-20T05:46:48;4.36;70.02
71649;SHT31;70112;45.624;11.760;2023-12-20T05:49:14;4.43;70.00
71649;SHT31;70112;45.624;11.760;2023-12-20T05:51:40;4.48;69.98
71649;SHT31;70112;45.624;11.760;2023-12-20T05:54:27;4.49;69.92
71649;SHT31;70112;45.624;11.760;2023-12-20T05:56:52;4.52;69.80
71649;SHT31;70112;45.624;11.760;2023-12-20T05:59:17;4.54;69.70
71649;SHT31;70112;45.624;11.760;2023-12-20T06:02:04;4.51;69.78
71649;SHT31;70112;45.624;11.760;2023-12-20T06:04:30;4.48;69.88
71649;SHT31;70112;45.624;11.760;2023-12-20T06:06:56;4.46;69.98
71649;SHT31;70112;45.624;11.760;2023-12-20T06:09:22;4.46;69.93
71649;SHT31;70112;45.624;11.760;2023-12-20T06:12:08;4.46;69.90
71649;SHT31;70112;45.624;11.760;2023-12-20T06:14:33;4.47;69.92
71649;SHT31;70112;45.624;11.760;2023-12-20T06:17:00;4.46;70.01
71649;SHT31;70112;45.624;11.760;2023-12-20T06:19:26;4.45;70.07
71649;SHT31;70112;45.624;11.760;2023-12-20T06:24:30;4.44;70.21
71649;SHT31;70112;45.624;11.760;2023-12-20T06:26:58;4.43;70.30
71649;SHT31;70112;45.624;11.760;2023-12-20T06:29:23;4.45;70.27
71649;SHT31;70112;45.624;11.760;2023-12-20T06:31:49;4.44;70.26
71649;SHT31;70112;45.624;11.760;2023-12-20T06:34:15;4.44;70.39
71649;SHT31;70112;45.624;11.760;2023-12-20T06:36:40;4.46;70.41
71649;SHT31;70112;45.624;11.760;2023-12-20T06:39:15;4.48;70.40
71649;SHT31;70112;45.624;11.760;2023-12-20T06:44:16;4.48;70.32
71649;SHT31;70112;45.624;11.760;2023-12-20T06:46:44;4.46;70.30
71649;SHT31;70112;45.624;11.760;2023-12-20T06:49:30;4.44;70.40
71649;SHT31;70112;45.624;11.760;2023-12-20T06:51:55;4.44;70.42
71649;SHT31;70112;45.624;11.760;2023-12-20T06:54:30;4.41;70.49
71649;SHT31;70112;45.624;11.760;2023-12-20T06:56:56;4.40;70.70
71649;SHT31;70112;45.624;11.760;2023-12-20T06:59:42;4.41;70.80
71649;SHT31;70112;45.624;11.760;2023-12-20T07:02:09;4.44;70.91
71649;SHT31;70112;45.624;11.760;2023-12-20T07:04:41;4.46;71.05
71649;SHT31;70112;45.624;11.760;2023-12-20T07:07:07;4.51;71.12
71649;SHT31;70112;45.624;11.760;2023-12-20T07:09:33;4.57;71.24
71649;SHT31;70112;45.624;11.760;2023-12-20T07:11:59;4.64;71.32
71649;SHT31;70112;45.624;11.760;2023-12-20T07:14:28;4.69;71.31
71649;SHT31;70112;45.624;11.760;2023-12-20T07:16:54;4.72;71.30
71649;SHT31;70112;45.624;11.760;2023-12-20T07:19:19;4.76;71.36
71649;SHT31;70112;45.624;11.760;2023-12-20T07:21:48;4.79;71.46
71649;SHT31;70112;45.624;11.760;2023-12-20T07:24:14;4.83;71.42
71649;SHT31;70112;45.624;11.760;2023-12-20T07:26:42;4.85;71.33
71649;SHT31;70112;45.624;11.760;2023-12-20T07:29:08;4.85;71.34
71649;SHT31;70112;45.624;11.760;2023-12-20T07:31:34;4.89;71.40
71649;SHT31;70112;45.624;11.760;2023-12-20T07:34:00;4.92;71.50
71649;SHT31;70112;45.624;11.760;2023-12-20T07:36:25;4.99;71.53
71649;SHT31;70112;45.624;11.760;2023-12-20T07:38:51;5.06;71.50
71649;SHT31;70112;45.624;11.760;2023-12-20T07:41:16;5.11;71.46
71649;SHT31;70112;45.624;11.760;2023-12-20T07:43:46;5.14;71.40
71649;SHT31;70112;45.624;11.760;2023-12-20T07:46:12;5.18;71.32
71649;SHT31;70112;45.624;11.760;2023-12-20T07:48:38;5.20;71.22
71649;SHT31;70112;45.624;11.760;2023-12-20T07:51:04;5.25;71.13
71649;SHT31;70112;45.624;11.760;2023-12-20T07:53:32;5.28;71.06
71649;SHT31;70112;45.624;11.760;2023-12-20T07:55:58;5.30;71.09
71649;SHT31;70112;45.624;11.760;2023-12-20T07:58:24;5.31;71.10
71649;SHT31;70112;45.624;11.760;2023-12-20T08:00:49;5.36;71.11
71649;SHT31;70112;45.624;11.760;2023-12-20T08:03:25;5.46;71.04
71649;SHT31;70112;45.624;11.760;2023-12-20T08:05:51;5.50;71.00
71649;SHT31;70112;45.624;11.760;2023-12-20T08:08:16;5.55;71.00
71649;SHT31;70112;45.624;11.760;2023-12-20T08:13:18;5.51;71.00
71649;SHT31;70112;45.624;11.760;2023-12-20T08:15:43;5.50;71.07
71649;SHT31;70112;45.624;11.760;2023-12-20T08:18:32;5.48;71.09
71649;SHT31;70112;45.624;11.760;2023-12-20T08:20:58;5.45;71.18
71649;SHT31;70112;45.624;11.760;2023-12-20T08:23:32;5.47;71.29
71649;SHT31;70112;45.624;11.760;2023-12-20T08:26:03;5.53;71.30
71649;SHT31;70112;45.624;11.760;2023-12-20T08:28:30;5.60;71.26
71649;SHT31;70112;45.624;11.760;2023-12-20T08:30:56;5.64;71.11
71649;SHT31;70112;45.624;11.760;2023-12-20T08:33:25;5.70;71.17
71649;SHT31;70112;45.624;11.760;2023-12-20T08:35:51;5.73;71.19
71649;SHT31;70112;45.624;11.760;2023-12-20T08:38:17;5.77;71.12
71649;SHT31;70112;45.624;11.760;2023-12-20T08:40:43;5.81;71.11
71649;SHT31;70112;45.624;11.760;2023-12-20T08:43:09;5.88;71.12
71649;SHT31;70112;45.624;11.760;2023-12-20T08:45:35;5.93;71.10
71649;SHT31;70112;45.624;11.760;2023-12-20T08:48:01;5.97;71.17
71649;SHT31;70112;45.624;11.760;2023-12-20T08:50:27;6.05;71.29
71649;SHT31;70112;45.624;11.760;2023-12-20T08:52:52;6.13;71.30
71649;SHT31;70112;45.624;11.760;2023-12-20T08:55:19;6.24;71.22
71649;SHT31;70112;45.624;11.760;2023-12-20T08:57:44;6.44;71.02
71649;SHT31;70112;45.624;11.760;2023-12-20T09:00:10;6.74;70.70
71649;SHT31;70112;45.624;11.760;2023-12-20T09:02:37;6.90;70.46
71649;SHT31;70112;45.624;11.760;2023-12-20T09:05:02;7.05;70.25
71649;SHT31;70112;45.624;11.760;2023-12-20T09:07:29;7.13;70.02
71649;SHT31;70112;45.624;11.760;2023-12-20T09:09:56;7.21;69.79
71649;SHT31;70112;45.624;11.760;2023-12-20T09:12:22;7.27;69.59
71649;SHT31;70112;45.624;11.760;2023-12-20T09:14:48;7.37;69.38
71649;SHT31;70112;45.624;11.760;2023-12-20T09:17:16;7.54;69.07
71649;SHT31;70112;45.624;11.760;2023-12-20T09:19:43;7.61;68.82
71649;SHT31;70112;45.624;11.760;2023-12-20T09:22:09;7.65;68.58
71649;SHT31;70112;45.624;11.760;2023-12-20T09:24:36;7.67;68.37
71649;SHT31;70112;45.624;11.760;2023-12-20T09:27:02;7.70;68.24
71649;SHT31;70112;45.624;11.760;2023-12-20T09:29:28;7.73;68.29
71649;SHT31;70112;45.624;11.760;2023-12-20T09:31:54;7.82;68.17
71649;SHT31;70112;45.624;11.760;2023-12-20T09:34:20;7.88;68.07
71649;SHT31;70112;45.624;11.760;2023-12-20T09:36:46;7.95;67.84
71649;SHT31;70112;45.624;11.760;2023-12-20T09:39:15;8.00;67.61
71649;SHT31;70112;45.624;11.760;2023-12-20T09:41:57;8.03;67.60
71649;SHT31;70112;45.624;11.760;2023-12-20T09:44:27;8.05;67.72
71649;SHT31;70112;45.624;11.760;2023-12-20T09:46:53;8.08;67.81
71649;SHT31;70112;45.624;11.760;2023-12-20T09:49:21;8.10;67.81
71649;SHT31;70112;45.624;11.760;2023-12-20T09:51:47;8.12;67.77
71649;SHT31;70112;45.624;11.760;2023-12-20T09:54:18;8.12;67.71
71649;SHT31;70112;45.624;11.760;2023-12-20T09:56:44;8.15;67.68
71649;SHT31;70112;45.624;11.760;2023-12-20T09:59:10;8.17;67.60
71649;SHT31;70112;45.624;11.760;2023-12-20T10:01:37;8.18;67.76
71649;SHT31;70112;45.624;11.760;2023-12-20T10:04:07;8.20;67.79
71649;SHT31;70112;45.624;11.760;2023-12-20T10:06:41;8.22;67.63
71649;SHT31;70112;45.624;11.760;2023-12-20T10:09:08;8.23;67.59
71649;SHT31;70112;45.624;11.760;2023-12-20T10:11:35;8.23;67.51
71649;SHT31;70112;45.624;11.760;2023-12-20T10:14:03;8.23;67.44
71649;SHT31;70112;45.624;11.760;2023-12-20T10:16:29;8.23;67.40
71649;SHT31;70112;45.624;11.760;2023-12-20T10:18:56;8.24;67.36
71649;SHT31;70112;45.624;11.760;2023-12-20T10:21:22;8.22;67.38
71649;SHT31;70112;45.624;11.760;2023-12-20T10:23:49;8.23;67.30
71649;SHT31;70112;45.624;11.760;2023-12-20T10:26:25;8.23;67.33
71649;SHT31;70112;45.624;11.760;2023-12-20T10:28:55;8.23;67.40
71649;SHT31;70112;45.624;11.760;2023-12-20T10:31:34;8.25;67.40
71649;SHT31;70112;45.624;11.760;2023-12-20T10:34:20;8.26;67.38
71649;SHT31;70112;45.624;11.760;2023-12-20T10:36:45;8.27;67.33
71649;SHT31;70112;45.624;11.760;2023-12-20T10:39:14;8.30;67.30
71649;SHT31;70112;45.624;11.760;2023-12-20T10:41:40;8.31;67.30
71649;SHT31;70112;45.624;11.760;2023-12-20T10:44:08;8.32;67.36
71649;SHT31;70112;45.624;11.760;2023-12-20T10:46:34;8.35;67.33
71649;SHT31;70112;45.624;11.760;2023-12-20T10:49:04;8.37;67.28
71649;SHT31;70112;45.624;11.760;2023-12-20T10:51:31;8.37;67.25
71649;SHT31;70112;45.624;11.760;2023-12-20T10:54:06;8.40;67.38
71649;SHT31;70112;45.624;11.760;2023-12-20T10:56:33;8.44;67.40
71649;SHT31;70112;45.624;11.760;2023-12-20T10:59:01;8.50;67.32
71649;SHT31;70112;45.624;11.760;2023-12-20T11:01:30;8.55;67.21
71649;SHT31;70112;45.624;11.760;2023-12-20T11:03:59;8.60;67.13
71649;SHT31;70112;45.624;11.760;2023-12-20T11:06:39;8.62;67.00
71649;SHT31;70112;45.624;11.760;2023-12-20T11:09:24;8.65;66.97
71649;SHT31;70112;45.624;11.760;2023-12-20T11:17:29;8.70;66.60
71649;SHT31;70112;45.624;11.760;2023-12-20T11:22:26;8.71;66.60
71649;SHT31;70112;45.624;11.760;2023-12-20T11:25:06;8.72;66.58
71649;SHT31;70112;45.624;11.760;2023-12-20T11:27:34;8.74;66.56
71649;SHT31;70112;45.624;11.760;2023-12-20T11:30:04;8.78;66.56
71649;SHT31;70112;45.624;11.760;2023-12-20T11:32:35;8.82;66.51
71649;SHT31;70112;45.624;11.760;2023-12-20T11:35:17;8.85;66.39
71649;SHT31;70112;45.624;11.760;2023-12-20T11:37:45;8.87;66.24
71649;SHT31;70112;45.624;11.760;2023-12-20T11:40:15;8.89;66.15
71649;SHT31;70112;45.624;11.760;2023-12-20T11:42:48;8.88;66.04
71649;SHT31;70112;45.624;11.760;2023-12-20T11:45:16;8.88;66.09
71649;SHT31;70112;45.624;11.760;2023-12-20T11:47:48;8.88;66.05
71649;SHT31;70112;45.624;11.760;2023-12-20T11:50:21;8.88;65.98
71649;SHT31;70112;45.624;11.760;2023-12-20T11:52:47;8.87;65.90
71649;SHT31;70112;45.624;11.760;2023-12-20T11:55:14;8.85;65.90
71649;SHT31;70112;45.624;11.760;2023-12-20T11:57:41;8.82;65.93
71649;SHT31;70112;45.624;11.760;2023-12-20T12:00:08;8.81;66.04
71649;SHT31;70112;45.624;11.760;2023-12-20T12:02:35;8.81;66.16
71649;SHT31;70112;45.624;11.760;2023-12-20T12:05:00;8.82;66.27
71649;SHT31;70112;45.624;11.760;2023-12-20T12:07:35;8.84;66.39
71649;SHT31;70112;45.624;11.760;2023-12-20T12:10:01;8.88;66.41
71649;SHT31;70112;45.624;11.760;2023-12-20T12:12:28;8.91;66.40
71649;SHT31;70112;45.624;11.760;2023-12-20T12:14:55;8.93;66.34
71649;SHT31;70112;45.624;11.760;2023-12-20T12:17:22;8.96;66.30
71649;SHT31;70112;45.624;11.760;2023-12-20T12:19:48;8.97;66.28
71649;SHT31;70112;45.624;11.760;2023-12-20T12:22:14;8.97;66.22
71649;SHT31;70112;45.624;11.760;2023-12-20T12:24:44;8.97;66.19
71649;SHT31;70112;45.624;11.760;2023-12-20T12:27:11;8.98;66.15
71649;SHT31;70112;45.624;11.760;2023-12-20T12:29:38;8.98;66.03
71649;SHT31;70112;45.624;11.760;2023-12-20T12:32:05;8.97;66.06
71649;SHT31;70112;45.624;11.760;2023-12-20T12:34:32;8.97;66.49
71649;SHT31;70112;45.624;11.760;2023-12-20T12:37:02;8.98;66.85
71649;SHT31;70112;45.624;11.760;2023-12-20T12:39:29;9.02;66.80
71649;SHT31;70112;45.624;11.760;2023-12-20T12:41:55;9.04;66.80
71649;SHT31;70112;45.624;11.760;2023-12-20T12:44:24;9.09;66.80
71649;SHT31;70112;45.624;11.760;2023-12-20T12:46:50;9.12;66.80
71649;SHT31;70112;45.624;11.760;2023-12-20T12:49:16;9.13;66.72
71649;SHT31;70112;45.624;11.760;2023-12-20T12:51:42;9.15;66.70
71649;SHT31;70112;45.624;11.760;2023-12-20T12:54:09;9.17;66.70
71649;SHT31;70112;45.624;11.760;2023-12-20T12:56:35;9.18;66.68
71649;SHT31;70112;45.624;11.760;2023-12-20T12:59:01;9.17;66.60
71649;SHT31;70112;45.624;11.760;2023-12-20T13:01:27;9.16;66.54
71649;SHT31;70112;45.624;11.760;2023-12-20T13:03:53;9.16;66.53
71649;SHT31;70112;45.624;11.760;2023-12-20T13:06:19;9.18;66.59
